Alva, OK

4:31 PM CDT on August 22, 2017 (GMT -0500)
Alva Regional

Weather History for KAVK - February, 2014

Change the Weather History Date:

Thursday, February 27, 2014

  Actual Average Record
Temperature  
Mean Temperature 36 °F -  
Max Temperature 55 °F 59 °F 83 °F (1976)
Min Temperature 17 °F 32 °F 10 °F (1962)
Degree Days  
Heating Degree Days 29    
Moisture  
Dew Point 16 °F    
Average Humidity 48    
Maximum Humidity 80    
Minimum Humidity 20    
Precipitation  
Precipitation 0.00 in - - ()
Sea Level Pressure  
Sea Level Pressure 29.92 in    
Wind  
Wind Speed 10 mph (South)    
Max Wind Speed 21 mph    
Max Gust Speed 29 mph    
Visibility 10 miles    
Events      
Averages and records for this station are not official NWS values.
T = Trace of Precipitation, MM = Missing Value Source: NWS Daily Summary

Daily Weather History Graph

Daily Weather History Graph

Search for Another Location

Airport or City:

Trip Planner

Search our weather history database for the weather conditions in past years. The results will help you decide how hot, cold, wet, or windy it might be!

Date:

Astronomy

Feb. 27, 2014 Rise Set
Actual Time 7:08 AM CST 6:27 PM CST
Civil Twilight 6:42 AM CST 6:53 PM CST
Nautical Twilight 6:12 AM CST 7:23 PM CST
Astronomical Twilight 5:42 AM CST 7:53 PM CST
Moon 5:39 AM CST (2/27) 4:55 PM CST (2/27)
Length of Visible Light 12h 11m
Length of Day
11h 19m
Waning Crescent, 4% of the Moon is Illuminated
Feb 27
Waning Crescent
Mar 1
New
Mar 8
First Quarter
Mar 16
Full
Mar 23
Last Quarter

Hourly Weather History & Observations

Time (CST) Temp. Windchill Dew Point Humidity Pressure Visibility Wind Dir Wind Speed Gust Speed Precip Events Conditions
12:15 AM 24.8 °F 13.4 °F 12.2 °F 59% 30.06 in 10.0 mi WSW 12.7 mph - N/A   Partly Cloudy
12:35 AM 24.8 °F 14.0 °F 12.2 °F 59% 30.06 in 10.0 mi WSW 11.5 mph - N/A   Partly Cloudy
12:55 AM 24.8 °F 15.3 °F 12.2 °F 59% 30.06 in 10.0 mi West 9.2 mph - N/A   Partly Cloudy
1:15 AM 24.8 °F 15.3 °F 12.2 °F 59% 30.05 in 10.0 mi West 9.2 mph - N/A   Clear
1:35 AM 23.0 °F 17.0 °F 12.2 °F 63% 30.06 in 10.0 mi West 4.6 mph - N/A   Clear
1:55 AM 23.0 °F 14.7 °F 12.2 °F 63% 30.06 in 10.0 mi WNW 6.9 mph - N/A   Clear
2:15 AM 23.0 °F - 12.2 °F 63% 30.06 in 10.0 mi Calm Calm - N/A   Clear
2:35 AM 24.8 °F 16.9 °F 12.2 °F 59% 30.06 in 10.0 mi NW 6.9 mph - N/A   Clear
2:55 AM 21.2 °F 13.6 °F 12.2 °F 68% 30.06 in 10.0 mi NNW 5.8 mph - N/A   Clear
3:15 AM 21.2 °F 13.6 °F 12.2 °F 68% 30.06 in 10.0 mi NW 5.8 mph - N/A   Clear
3:35 AM 19.4 °F 14.3 °F 12.2 °F 74% 30.05 in 10.0 mi West 3.5 mph - N/A   Clear
3:55 AM 21.2 °F 14.9 °F 12.2 °F 68% 30.05 in 10.0 mi West 4.6 mph - N/A   Clear
4:15 AM 19.4 °F 11.5 °F 12.2 °F 74% 30.05 in 10.0 mi West 5.8 mph - N/A   Clear
4:35 AM 19.4 °F 11.5 °F 12.2 °F 74% 30.05 in 10.0 mi WNW 5.8 mph - N/A   Clear
4:55 AM 17.6 °F 12.3 °F 10.4 °F 73% 30.05 in 10.0 mi West 3.5 mph - N/A   Clear
5:15 AM 21.2 °F 12.6 °F 12.2 °F 68% 30.05 in 10.0 mi NW 6.9 mph - N/A   Clear
5:35 AM 21.2 °F 11.7 °F 14.0 °F 74% 30.04 in 10.0 mi North 8.1 mph - N/A   Clear
5:55 AM 19.4 °F - 14.0 °F 80% 30.04 in 10.0 mi Calm Calm - N/A   Clear
6:15 AM 19.4 °F 11.5 °F 14.0 °F 80% 30.04 in 10.0 mi NNW 5.8 mph - N/A   Clear
6:35 AM 17.6 °F 8.2 °F 10.4 °F 73% 30.05 in 10.0 mi SW 6.9 mph - N/A   Clear
6:55 AM 17.6 °F 9.3 °F 12.2 °F 79% 30.05 in 10.0 mi West 5.8 mph - N/A   Clear
7:15 AM 17.6 °F 10.7 °F 12.2 °F 79% 30.05 in 9.0 mi WNW 4.6 mph - N/A   Clear
7:35 AM 19.4 °F 14.3 °F 14.0 °F 80% 30.05 in 8.0 mi WNW 3.5 mph - N/A   Clear
7:55 AM 21.2 °F 16.4 °F 14.0 °F 74% 30.05 in 7.0 mi WSW 3.5 mph - N/A   Clear
8:15 AM 24.8 °F - 15.8 °F 69% 30.06 in 8.0 mi Calm Calm - N/A   Clear
8:35 AM 26.6 °F - 15.8 °F 64% 30.06 in 10.0 mi Calm Calm - N/A   Clear
8:55 AM 30.2 °F - 15.8 °F 55% 30.05 in 10.0 mi Calm Calm - N/A   Clear
9:15 AM 32.0 °F 26.4 °F 15.8 °F 51% 30.06 in 10.0 mi SE 5.8 mph - N/A   Clear
9:35 AM 33.8 °F 26.4 °F 14.0 °F 44% 30.06 in 10.0 mi ESE 9.2 mph - N/A   Clear
9:55 AM 33.8 °F 27.0 °F 14.0 °F 44% 30.05 in 10.0 mi SE 8.1 mph - N/A   Clear
10:15 AM 35.6 °F 28.6 °F 14.0 °F 41% 30.05 in 10.0 mi ESE 9.2 mph - N/A   Clear
10:35 AM 35.6 °F 28.0 °F 14.0 °F 41% 30.04 in 10.0 mi SE 10.4 mph - N/A   Clear
10:55 AM 37.4 °F 29.8 °F 14.0 °F 38% 30.03 in 10.0 mi ESE 11.5 mph - N/A   Clear
11:15 AM 39.2 °F 32.5 °F 12.2 °F 33% 30.02 in 10.0 mi ESE 10.4 mph - N/A   Clear
11:35 AM 41.0 °F 34.3 °F 12.2 °F 31% 30.01 in 10.0 mi ESE 11.5 mph 16.1 mph N/A   Clear
11:55 AM 41.0 °F 34.3 °F 12.2 °F 31% 30.00 in 10.0 mi ESE 11.5 mph 18.4 mph N/A   Clear
12:15 PM 44.6 °F 38.4 °F 10.4 °F 25% 29.98 in 10.0 mi ESE 12.7 mph 17.3 mph N/A   Clear
12:35 PM 44.6 °F 38.1 °F 12.2 °F 27% 29.96 in 10.0 mi ESE 13.8 mph - N/A   Clear
12:55 PM 46.4 °F 40.4 °F 12.2 °F 25% 29.95 in 10.0 mi ESE 13.8 mph 19.6 mph N/A   Clear
1:15 PM 48.2 °F - 14.0 °F 25% 29.93 in 10.0 mi SSE 13.8 mph 19.6 mph N/A   Clear
1:35 PM 48.2 °F - 14.0 °F 25% 29.91 in 10.0 mi SE 15.0 mph 20.7 mph N/A   Clear
1:55 PM 48.2 °F - 14.0 °F 25% 29.89 in 9.0 mi SSE 19.6 mph 23.0 mph N/A   Clear
2:15 PM 50.0 °F - 15.8 °F 26% 29.87 in 10.0 mi SSE 17.3 mph 24.2 mph N/A   Clear
2:35 PM 51.8 °F - 15.8 °F 24% 29.86 in 10.0 mi South 18.4 mph 24.2 mph N/A   Clear
2:55 PM 53.6 °F - 17.6 °F 24% 29.85 in 10.0 mi South 17.3 mph 25.3 mph N/A   Clear
3:15 PM 53.6 °F - 17.6 °F 24% 29.84 in 10.0 mi South 17.3 mph 21.9 mph N/A   Clear
3:35 PM 53.6 °F - 17.6 °F 24% 29.82 in 10.0 mi SSE 20.7 mph 25.3 mph N/A   Clear
3:55 PM 53.6 °F - 17.6 °F 24% 29.82 in 10.0 mi SSE 19.6 mph 25.3 mph N/A   Clear
4:15 PM 55.4 °F - 15.8 °F 21% 29.80 in 10.0 mi SSE 18.4 mph 24.2 mph N/A   Clear
4:35 PM 55.4 °F - 14.0 °F 20% 29.79 in 10.0 mi South 18.4 mph 28.8 mph N/A   Clear
4:55 PM 55.4 °F - 15.8 °F 21% 29.79 in 10.0 mi South 16.1 mph 21.9 mph N/A   Clear
5:15 PM 55.4 °F - 17.6 °F 23% 29.77 in 10.0 mi South 17.3 mph 20.7 mph N/A   Clear
5:35 PM 55.4 °F - 21.2 °F 26% 29.77 in 10.0 mi South 16.1 mph 21.9 mph N/A   Clear
5:55 PM 53.6 °F - 23.0 °F 30% 29.77 in 10.0 mi South 16.1 mph - N/A   Clear
6:15 PM 50.0 °F - 23.0 °F 35% 29.77 in 10.0 mi South 12.7 mph - N/A   Clear
6:35 PM 48.2 °F - 23.0 °F 37% 29.76 in 10.0 mi SSE 13.8 mph - N/A   Clear
6:55 PM 48.2 °F - 23.0 °F 37% 29.76 in 10.0 mi SSE 12.7 mph - N/A   Partly Cloudy
7:15 PM 46.4 °F 40.7 °F 24.8 °F 43% 29.76 in 10.0 mi South 12.7 mph - N/A   Scattered Clouds
7:35 PM 46.4 °F 40.7 °F 24.8 °F 43% 29.75 in 10.0 mi SSE 12.7 mph - N/A   Partly Cloudy
7:55 PM 44.6 °F 38.8 °F 24.8 °F 46% 29.75 in 10.0 mi SSE 11.5 mph - N/A   Partly Cloudy
8:15 PM 44.6 °F 39.7 °F 24.8 °F 46% 29.75 in 10.0 mi SE 9.2 mph - N/A   Scattered Clouds
8:35 PM 41.0 °F 33.9 °F 23.0 °F 49% 29.75 in 10.0 mi SE 12.7 mph - N/A   Mostly Cloudy
8:55 PM 41.0 °F 33.5 °F 23.0 °F 49% 29.74 in 10.0 mi SE 13.8 mph - N/A   Mostly Cloudy
9:15 PM 42.8 °F 35.4 °F 23.0 °F 46% 29.75 in 10.0 mi SSE 15.0 mph - N/A   Scattered Clouds
9:35 PM 42.8 °F 36.2 °F 23.0 °F 46% 29.75 in 10.0 mi SSE 12.7 mph - N/A   Partly Cloudy
9:55 PM 41.0 °F 33.9 °F 21.2 °F 45% 29.75 in 10.0 mi SSE 12.7 mph - N/A   Mostly Cloudy
10:15 PM 41.0 °F 33.1 °F 21.2 °F 45% 29.74 in 10.0 mi SSE 15.0 mph - N/A   Mostly Cloudy
10:35 PM 39.2 °F 31.2 °F 19.4 °F 45% 29.73 in 10.0 mi SSE 13.8 mph - N/A   Scattered Clouds
10:55 PM 41.0 °F 32.8 °F 19.4 °F 42% 29.73 in 10.0 mi SSE 16.1 mph - N/A   Mostly Cloudy
11:15 PM 41.0 °F 33.1 °F 19.4 °F 42% 29.72 in 10.0 mi SSE 15.0 mph - N/A   Mostly Cloudy
11:35 PM 41.0 °F 32.5 °F 19.4 °F 42% 29.72 in 10.0 mi SSE 17.3 mph - N/A   Mostly Cloudy
11:55 PM 42.8 °F 35.1 °F 19.4 °F 39% 29.71 in 10.0 mi SSE 16.1 mph 20.7 mph N/A   Mostly Cloudy